sensor_id;sensor_type;location;lat;lon;timestamp;P1;P2;P0
73305;PMS5003;61530;51.158;0.880;2023-12-29T00:00:59;6;6;4
73305;PMS5003;61530;51.158;0.880;2023-12-29T00:02:03;9;4;2
73305;PMS5003;61530;51.158;0.880;2023-12-29T00:03:05;12;12;3
73305;PMS5003;61530;51.158;0.880;2023-12-29T00:04:08;12;3;1
73305;PMS5003;61530;51.158;0.880;2023-12-29T00:05:11;15;5;1
73305;PMS5003;61530;51.158;0.880;2023-12-29T00:06:14;12;5;2
73305;PMS5003;61530;51.158;0.880;2023-12-29T00:07:17;9;4;1
73305;PMS5003;61530;51.158;0.880;2023-12-29T00:08:20;8;5;1
73305;PMS5003;61530;51.158;0.880;2023-12-29T00:09:23;12;5;2
73305;PMS5003;61530;51.158;0.880;2023-12-29T00:10:26;13;7;3
73305;PMS5003;61530;51.158;0.880;2023-12-29T00:11:29;10;7;3
73305;PMS5003;61530;51.158;0.880;2023-12-29T00:12:32;7;3;1
73305;PMS5003;61530;51.158;0.880;2023-12-29T00:13:35;6;3;1
73305;PMS5003;61530;51.158;0.880;2023-12-29T00:14:38;12;3;1
73305;PMS5003;61530;51.158;0.880;2023-12-29T00:15:41;8;7;1
73305;PMS5003;61530;51.158;0.880;2023-12-29T00:16:44;12;5;1
73305;PMS5003;61530;51.158;0.880;2023-12-29T00:17:47;4;4;1
73305;PMS5003;61530;51.158;0.880;2023-12-29T00:18:50;10;3;1
73305;PMS5003;61530;51.158;0.880;2023-12-29T00:19:53;8;4;1
73305;PMS5003;61530;51.158;0.880;2023-12-29T00:20:56;6;4;2
73305;PMS5003;61530;51.158;0.880;2023-12-29T00:21:59;5;5;2
73305;PMS5003;61530;51.158;0.880;2023-12-29T00:23:02;7;5;2
73305;PMS5003;61530;51.158;0.880;2023-12-29T00:24:05;7;5;1
73305;PMS5003;61530;51.158;0.880;2023-12-29T00:25:08;18;5;2
73305;PMS5003;61530;51.158;0.880;2023-12-29T00:26:11;8;5;1
73305;PMS5003;61530;51.158;0.880;2023-12-29T00:27:14;12;6;2
73305;PMS5003;61530;51.158;0.880;2023-12-29T00:28:17;7;3;1
73305;PMS5003;61530;51.158;0.880;2023-12-29T00:29:26;5;5;2
73305;PMS5003;61530;51.158;0.880;2023-12-29T00:30:23;15;9;2
73305;PMS5003;61530;51.158;0.880;2023-12-29T00:31:26;16;13;4
73305;PMS5003;61530;51.158;0.880;2023-12-29T00:32:29;8;6;2
73305;PMS5003;61530;51.158;0.880;2023-12-29T00:33:32;10;3;2
73305;PMS5003;61530;51.158;0.880;2023-12-29T00:34:35;13;6;2
73305;PMS5003;61530;51.158;0.880;2023-12-29T00:35:38;7;6;1
73305;PMS5003;61530;51.158;0.880;2023-12-29T00:36:41;15;8;1
73305;PMS5003;61530;51.158;0.880;2023-12-29T00:37:44;10;7;1
73305;PMS5003;61530;51.158;0.880;2023-12-29T00:38:47;6;6;2
73305;PMS5003;61530;51.158;0.880;2023-12-29T00:39:51;6;3;2
73305;PMS5003;61530;51.158;0.880;2023-12-29T00:40:54;9;5;3
73305;PMS5003;61530;51.158;0.880;2023-12-29T00:41:57;10;9;3
73305;PMS5003;61530;51.158;0.880;2023-12-29T00:43:00;5;3;1
73305;PMS5003;61530;51.158;0.880;2023-12-29T00:44:03;13;9;1
73305;PMS5003;61530;51.158;0.880;2023-12-29T00:45:07;13;7;2
73305;PMS5003;61530;51.158;0.880;2023-12-29T00:46:10;8;3;1
73305;PMS5003;61530;51.158;0.880;2023-12-29T00:47:13;12;4;1
73305;PMS5003;61530;51.158;0.880;2023-12-29T00:48:16;13;4;2
73305;PMS5003;61530;51.158;0.880;2023-12-29T00:49:19;10;4;1
73305;PMS5003;61530;51.158;0.880;2023-12-29T00:50:22;8;8;2
73305;PMS5003;61530;51.158;0.880;2023-12-29T00:51:25;6;5;2
73305;PMS5003;61530;51.158;0.880;2023-12-29T00:52:28;10;4;2
73305;PMS5003;61530;51.158;0.880;2023-12-29T00:53:31;10;6;2
73305;PMS5003;61530;51.158;0.880;2023-12-29T00:54:34;8;5;0
73305;PMS5003;61530;51.158;0.880;2023-12-29T00:55:37;9;5;1
73305;PMS5003;61530;51.158;0.880;2023-12-29T00:56:40;4;4;1
73305;PMS5003;61530;51.158;0.880;2023-12-29T00:57:43;6;5;2
73305;PMS5003;61530;51.158;0.880;2023-12-29T00:58:46;6;6;2
73305;PMS5003;61530;51.158;0.880;2023-12-29T00:59:49;7;7;2
73305;PMS5003;61530;51.158;0.880;2023-12-29T01:00:52;10;9;4
73305;PMS5003;61530;51.158;0.880;2023-12-29T01:01:55;13;5;3
73305;PMS5003;61530;51.158;0.880;2023-12-29T01:02:58;13;7;4
73305;PMS5003;61530;51.158;0.880;2023-12-29T01:04:01;10;7;6
73305;PMS5003;61530;51.158;0.880;2023-12-29T01:05:04;12;9;6
73305;PMS5003;61530;51.158;0.880;2023-12-29T01:06:07;14;10;5
73305;PMS5003;61530;51.158;0.880;2023-12-29T01:07:10;9;6;1
73305;PMS5003;61530;51.158;0.880;2023-12-29T01:08:13;10;7;1
73305;PMS5003;61530;51.158;0.880;2023-12-29T01:09:16;8;4;1
73305;PMS5003;61530;51.158;0.880;2023-12-29T01:10:19;11;6;2
73305;PMS5003;61530;51.158;0.880;2023-12-29T01:11:22;11;5;2
73305;PMS5003;61530;51.158;0.880;2023-12-29T01:12:25;4;4;2
73305;PMS5003;61530;51.158;0.880;2023-12-29T01:13:28;11;6;1
73305;PMS5003;61530;51.158;0.880;2023-12-29T01:14:31;11;7;1
73305;PMS5003;61530;51.158;0.880;2023-12-29T01:15:34;15;9;3
73305;PMS5003;61530;51.158;0.880;2023-12-29T01:16:37;3;2;1
73305;PMS5003;61530;51.158;0.880;2023-12-29T01:17:40;9;3;1
73305;PMS5003;61530;51.158;0.880;2023-12-29T01:18:43;9;9;5
73305;PMS5003;61530;51.158;0.880;2023-12-29T01:19:46;8;7;3
73305;PMS5003;61530;51.158;0.880;2023-12-29T01:20:49;8;8;6
73305;PMS5003;61530;51.158;0.880;2023-12-29T01:21:52;9;7;1
73305;PMS5003;61530;51.158;0.880;2023-12-29T01:22:55;14;8;4
73305;PMS5003;61530;51.158;0.880;2023-12-29T01:23:58;7;4;2
73305;PMS5003;61530;51.158;0.880;2023-12-29T01:25:01;15;9;3
73305;PMS5003;61530;51.158;0.880;2023-12-29T01:26:04;12;7;4
73305;PMS5003;61530;51.158;0.880;2023-12-29T01:27:07;12;7;3
73305;PMS5003;61530;51.158;0.880;2023-12-29T01:28:10;16;7;2
73305;PMS5003;61530;51.158;0.880;2023-12-29T01:29:13;8;5;3
73305;PMS5003;61530;51.158;0.880;2023-12-29T01:30:16;17;8;5
73305;PMS5003;61530;51.158;0.880;2023-12-29T01:31:19;9;8;5
73305;PMS5003;61530;51.158;0.880;2023-12-29T01:32:22;11;6;3
73305;PMS5003;61530;51.158;0.880;2023-12-29T01:33:25;9;9;5
73305;PMS5003;61530;51.158;0.880;2023-12-29T01:34:28;13;9;6
73305;PMS5003;61530;51.158;0.880;2023-12-29T01:35:31;9;8;6
73305;PMS5003;61530;51.158;0.880;2023-12-29T01:36:35;12;11;4
73305;PMS5003;61530;51.158;0.880;2023-12-29T01:37:38;8;7;4
73305;PMS5003;61530;51.158;0.880;2023-12-29T01:38:41;15;8;5
73305;PMS5003;61530;51.158;0.880;2023-12-29T01:39:44;14;12;7
73305;PMS5003;61530;51.158;0.880;2023-12-29T01:40:47;13;11;7
73305;PMS5003;61530;51.158;0.880;2023-12-29T01:41:50;13;9;7
73305;PMS5003;61530;51.158;0.880;2023-12-29T01:42:53;11;8;2
73305;PMS5003;61530;51.158;0.880;2023-12-29T01:44:28;13;9;6
73305;PMS5003;61530;51.158;0.880;2023-12-29T01:44:59;11;9;7
73305;PMS5003;61530;51.158;0.880;2023-12-29T01:46:02;12;12;3
73305;PMS5003;61530;51.158;0.880;2023-12-29T01:47:11;9;7;3
73305;PMS5003;61530;51.158;0.880;2023-12-29T01:48:08;15;10;8
73305;PMS5003;61530;51.158;0.880;2023-12-29T01:49:11;17;15;10
73305;PMS5003;61530;51.158;0.880;2023-12-29T01:50:14;17;16;12
73305;PMS5003;61530;51.158;0.880;2023-12-29T01:51:17;14;8;3
73305;PMS5003;61530;51.158;0.880;2023-12-29T01:52:20;16;12;7
73305;PMS5003;61530;51.158;0.880;2023-12-29T01:53:23;15;8;4
73305;PMS5003;61530;51.158;0.880;2023-12-29T01:54:28;12;11;7
73305;PMS5003;61530;51.158;0.880;2023-12-29T01:55:29;13;11;7
73305;PMS5003;61530;51.158;0.880;2023-12-29T01:56:32;12;12;8
73305;PMS5003;61530;51.158;0.880;2023-12-29T01:57:35;8;8;6
73305;PMS5003;61530;51.158;0.880;2023-12-29T01:58:38;14;9;3
73305;PMS5003;61530;51.158;0.880;2023-12-29T01:59:41;9;8;5
73305;PMS5003;61530;51.158;0.880;2023-12-29T02:00:44;16;11;2
73305;PMS5003;61530;51.158;0.880;2023-12-29T02:01:47;12;7;5
73305;PMS5003;61530;51.158;0.880;2023-12-29T02:02:50;12;9;6
73305;PMS5003;61530;51.158;0.880;2023-12-29T02:03:53;13;11;7
73305;PMS5003;61530;51.158;0.880;2023-12-29T02:04:56;15;11;2
73305;PMS5003;61530;51.158;0.880;2023-12-29T02:06:00;16;7;5
73305;PMS5003;61530;51.158;0.880;2023-12-29T02:07:03;13;9;6
73305;PMS5003;61530;51.158;0.880;2023-12-29T02:08:06;18;9;1
73305;PMS5003;61530;51.158;0.880;2023-12-29T02:09:09;14;12;3
73305;PMS5003;61530;51.158;0.880;2023-12-29T02:10:12;7;7;4
73305;PMS5003;61530;51.158;0.880;2023-12-29T02:11:16;18;9;2
73305;PMS5003;61530;51.158;0.880;2023-12-29T02:12:18;11;8;5
73305;PMS5003;61530;51.158;0.880;2023-12-29T02:13:22;12;6;4
73305;PMS5003;61530;51.158;0.880;2023-12-29T02:14:25;15;11;3
73305;PMS5003;61530;51.158;0.880;2023-12-29T02:15:28;16;8;4
73305;PMS5003;61530;51.158;0.880;2023-12-29T02:16:34;14;11;6
73305;PMS5003;61530;51.158;0.880;2023-12-29T02:17:36;14;11;1
73305;PMS5003;61530;51.158;0.880;2023-12-29T02:18:37;18;8;2
73305;PMS5003;61530;51.158;0.880;2023-12-29T02:19:41;17;11;5
73305;PMS5003;61530;51.158;0.880;2023-12-29T02:20:43;14;9;6
73305;PMS5003;61530;51.158;0.880;2023-12-29T02:21:47;13;11;6
73305;PMS5003;61530;51.158;0.880;2023-12-29T02:22:50;21;14;9
73305;PMS5003;61530;51.158;0.880;2023-12-29T02:23:53;15;10;3
73305;PMS5003;61530;51.158;0.880;2023-12-29T02:24:56;8;7;4
73305;PMS5003;61530;51.158;0.880;2023-12-29T02:26:01;13;12;6
73305;PMS5003;61530;51.158;0.880;2023-12-29T02:27:04;9;8;2
73305;PMS5003;61530;51.158;0.880;2023-12-29T02:28:07;7;6;2
73305;PMS5003;61530;51.158;0.880;2023-12-29T02:29:08;8;7;2
73305;PMS5003;61530;51.158;0.880;2023-12-29T02:30:13;11;9;6
73305;PMS5003;61530;51.158;0.880;2023-12-29T02:31:16;16;12;7
73305;PMS5003;61530;51.158;0.880;2023-12-29T02:32:18;22;12;6
73305;PMS5003;61530;51.158;0.880;2023-12-29T02:33:22;17;13;7
73305;PMS5003;61530;51.158;0.880;2023-12-29T02:34:24;16;12;5
73305;PMS5003;61530;51.158;0.880;2023-12-29T02:35:28;15;9;6
73305;PMS5003;61530;51.158;0.880;2023-12-29T02:36:30;14;12;7
73305;PMS5003;61530;51.158;0.880;2023-12-29T02:37:33;19;9;5
73305;PMS5003;61530;51.158;0.880;2023-12-29T02:38:36;8;8;6
73305;PMS5003;61530;51.158;0.880;2023-12-29T02:39:39;17;9;6
73305;PMS5003;61530;51.158;0.880;2023-12-29T02:40:42;13;12;8
73305;PMS5003;61530;51.158;0.880;2023-12-29T02:41:45;16;13;7
73305;PMS5003;61530;51.158;0.880;2023-12-29T02:42:48;18;12;8
73305;PMS5003;61530;51.158;0.880;2023-12-29T02:43:51;15;8;4
73305;PMS5003;61530;51.158;0.880;2023-12-29T02:44:54;11;8;6
73305;PMS5003;61530;51.158;0.880;2023-12-29T02:45:57;13;7;1
73305;PMS5003;61530;51.158;0.880;2023-12-29T02:47:00;9;6;3
73305;PMS5003;61530;51.158;0.880;2023-12-29T02:48:04;13;9;5
73305;PMS5003;61530;51.158;0.880;2023-12-29T02:49:06;14;11;4
73305;PMS5003;61530;51.158;0.880;2023-12-29T02:50:10;19;12;6
73305;PMS5003;61530;51.158;0.880;2023-12-29T02:51:12;14;7;6
73305;PMS5003;61530;51.158;0.880;2023-12-29T02:52:15;19;13;5
73305;PMS5003;61530;51.158;0.880;2023-12-29T02:53:18;16;9;6
73305;PMS5003;61530;51.158;0.880;2023-12-29T02:54:21;8;5;3
73305;PMS5003;61530;51.158;0.880;2023-12-29T02:55:24;13;6;1
73305;PMS5003;61530;51.158;0.880;2023-12-29T02:56:27;7;5;2
73305;PMS5003;61530;51.158;0.880;2023-12-29T02:57:30;6;4;2
73305;PMS5003;61530;51.158;0.880;2023-12-29T02:58:33;13;7;2
73305;PMS5003;61530;51.158;0.880;2023-12-29T02:59:36;7;5;3
73305;PMS5003;61530;51.158;0.880;2023-12-29T03:00:39;7;5;2
73305;PMS5003;61530;51.158;0.880;2023-12-29T03:01:42;8;6;4
73305;PMS5003;61530;51.158;0.880;2023-12-29T03:02:45;18;9;5
73305;PMS5003;61530;51.158;0.880;2023-12-29T03:03:48;14;7;4
73305;PMS5003;61530;51.158;0.880;2023-12-29T03:04:51;16;10;5
73305;PMS5003;61530;51.158;0.880;2023-12-29T03:05:54;14;7;3
73305;PMS5003;61530;51.158;0.880;2023-12-29T03:06:57;13;8;5
73305;PMS5003;61530;51.158;0.880;2023-12-29T03:08:00;16;12;3
73305;PMS5003;61530;51.158;0.880;2023-12-29T03:09:03;11;8;5
73305;PMS5003;61530;51.158;0.880;2023-12-29T03:10:07;12;8;5
73305;PMS5003;61530;51.158;0.880;2023-12-29T03:11:10;14;12;3
73305;PMS5003;61530;51.158;0.880;2023-12-29T03:12:12;13;9;3
73305;PMS5003;61530;51.158;0.880;2023-12-29T03:13:15;14;11;5
73305;PMS5003;61530;51.158;0.880;2023-12-29T03:14:18;12;8;2
73305;PMS5003;61530;51.158;0.880;2023-12-29T03:15:21;8;4;1
73305;PMS5003;61530;51.158;0.880;2023-12-29T03:16:24;12;9;5
73305;PMS5003;61530;51.158;0.880;2023-12-29T03:17:27;12;9;6
73305;PMS5003;61530;51.158;0.880;2023-12-29T03:18:30;16;12;7
73305;PMS5003;61530;51.158;0.880;2023-12-29T03:19:33;12;11;5
73305;PMS5003;61530;51.158;0.880;2023-12-29T03:20:36;14;9;6
73305;PMS5003;61530;51.158;0.880;2023-12-29T03:21:39;15;9;6
73305;PMS5003;61530;51.158;0.880;2023-12-29T03:22:42;8;5;1
73305;PMS5003;61530;51.158;0.880;2023-12-29T03:23:45;12;9;4
73305;PMS5003;61530;51.158;0.880;2023-12-29T03:24:48;8;6;2
73305;PMS5003;61530;51.158;0.880;2023-12-29T03:25:51;3;3;1
73305;PMS5003;61530;51.158;0.880;2023-12-29T03:26:54;10;6;3
73305;PMS5003;61530;51.158;0.880;2023-12-29T03:27:57;6;5;1
73305;PMS5003;61530;51.158;0.880;2023-12-29T03:29:00;10;5;2
73305;PMS5003;61530;51.158;0.880;2023-12-29T03:30:04;14;10;5
73305;PMS5003;61530;51.158;0.880;2023-12-29T03:31:06;8;5;4
73305;PMS5003;61530;51.158;0.880;2023-12-29T03:32:09;8;5;2
73305;PMS5003;61530;51.158;0.880;2023-12-29T03:33:12;8;4;2
73305;PMS5003;61530;51.158;0.880;2023-12-29T03:34:15;10;6;1
73305;PMS5003;61530;51.158;0.880;2023-12-29T03:35:18;10;5;1
73305;PMS5003;61530;51.158;0.880;2023-12-29T03:36:21;9;5;2
73305;PMS5003;61530;51.158;0.880;2023-12-29T03:37:24;10;7;1
73305;PMS5003;61530;51.158;0.880;2023-12-29T03:38:27;7;4;2
73305;PMS5003;61530;51.158;0.880;2023-12-29T03:39:30;4;4;2
73305;PMS5003;61530;51.158;0.880;2023-12-29T03:40:33;6;5;1
73305;PMS5003;61530;51.158;0.880;2023-12-29T03:41:36;9;6;0
73305;PMS5003;61530;51.158;0.880;2023-12-29T03:42:40;6;4;1
73305;PMS5003;61530;51.158;0.880;2023-12-29T03:43:42;4;4;2
73305;PMS5003;61530;51.158;0.880;2023-12-29T03:44:45;5;4;0
73305;PMS5003;61530;51.158;0.880;2023-12-29T03:45:48;3;3;1
73305;PMS5003;61530;51.158;0.880;2023-12-29T03:46:51;10;5;2
73305;PMS5003;61530;51.158;0.880;2023-12-29T03:47:54;7;4;2
73305;PMS5003;61530;51.158;0.880;2023-12-29T03:48:57;6;3;1
73305;PMS5003;61530;51.158;0.880;2023-12-29T03:50:00;7;6;2
73305;PMS5003;61530;51.158;0.880;2023-12-29T03:51:04;12;6;1
73305;PMS5003;61530;51.158;0.880;2023-12-29T03:52:06;24;10;1
73305;PMS5003;61530;51.158;0.880;2023-12-29T03:53:09;6;6;2
73305;PMS5003;61530;51.158;0.880;2023-12-29T03:54:12;12;8;2
73305;PMS5003;61530;51.158;0.880;2023-12-29T03:55:15;9;5;1
73305;PMS5003;61530;51.158;0.880;2023-12-29T03:56:18;14;13;4
73305;PMS5003;61530;51.158;0.880;2023-12-29T03:57:21;8;4;2
73305;PMS5003;61530;51.158;0.880;2023-12-29T03:58:24;8;4;1
73305;PMS5003;61530;51.158;0.880;2023-12-29T03:59:27;6;4;1
73305;PMS5003;61530;51.158;0.880;2023-12-29T04:00:30;10;3;2
73305;PMS5003;61530;51.158;0.880;2023-12-29T04:01:33;10;7;2
73305;PMS5003;61530;51.158;0.880;2023-12-29T04:02:36;5;5;2
73305;PMS5003;61530;51.158;0.880;2023-12-29T04:03:40;12;8;2
73305;PMS5003;61530;51.158;0.880;2023-12-29T04:04:42;9;5;1
73305;PMS5003;61530;51.158;0.880;2023-12-29T04:05:45;5;4;1
73305;PMS5003;61530;51.158;0.880;2023-12-29T04:06:48;6;5;1
73305;PMS5003;61530;51.158;0.880;2023-12-29T04:07:51;12;5;1
73305;PMS5003;61530;51.158;0.880;2023-12-29T04:08:54;6;5;1
73305;PMS5003;61530;51.158;0.880;2023-12-29T04:09:57;7;3;1
73305;PMS5003;61530;51.158;0.880;2023-12-29T04:11:00;7;5;1
73305;PMS5003;61530;51.158;0.880;2023-12-29T04:12:03;10;8;1
73305;PMS5003;61530;51.158;0.880;2023-12-29T04:13:06;6;2;1
73305;PMS5003;61530;51.158;0.880;2023-12-29T04:14:09;5;4;0
73305;PMS5003;61530;51.158;0.880;2023-12-29T04:15:12;7;6;2
73305;PMS5003;61530;51.158;0.880;2023-12-29T04:16:15;9;6;2
73305;PMS5003;61530;51.158;0.880;2023-12-29T04:17:18;13;10;2
73305;PMS5003;61530;51.158;0.880;2023-12-29T04:18:22;4;3;1
73305;PMS5003;61530;51.158;0.880;2023-12-29T04:19:24;6;5;1
73305;PMS5003;61530;51.158;0.880;2023-12-29T04:20:27;8;3;1
73305;PMS5003;61530;51.158;0.880;2023-12-29T04:21:30;5;5;0
73305;PMS5003;61530;51.158;0.880;2023-12-29T04:22:33;13;8;3
73305;PMS5003;61530;51.158;0.880;2023-12-29T04:23:36;9;5;1
73305;PMS5003;61530;51.158;0.880;2023-12-29T04:24:39;4;4;1
73305;PMS5003;61530;51.158;0.880;2023-12-29T04:25:42;5;3;1
73305;PMS5003;61530;51.158;0.880;2023-12-29T04:26:45;6;4;1
73305;PMS5003;61530;51.158;0.880;2023-12-29T04:27:48;9;4;1
73305;PMS5003;61530;51.158;0.880;2023-12-29T04:28:51;18;8;4
73305;PMS5003;61530;51.158;0.880;2023-12-29T04:29:54;6;5;1
73305;PMS5003;61530;51.158;0.880;2023-12-29T04:30:57;9;4;1
73305;PMS5003;61530;51.158;0.880;2023-12-29T04:32:00;13;7;2
73305;PMS5003;61530;51.158;0.880;2023-12-29T04:33:04;13;8;1
73305;PMS5003;61530;51.158;0.880;2023-12-29T04:34:06;10;3;1
73305;PMS5003;61530;51.158;0.880;2023-12-29T04:35:09;3;3;1
73305;PMS5003;61530;51.158;0.880;2023-12-29T04:36:12;10;6;0
73305;PMS5003;61530;51.158;0.880;2023-12-29T04:37:15;3;3;1
73305;PMS5003;61530;51.158;0.880;2023-12-29T04:38:18;6;6;1
73305;PMS5003;61530;51.158;0.880;2023-12-29T04:39:21;9;2;1
73305;PMS5003;61530;51.158;0.880;2023-12-29T04:40:24;5;3;1
73305;PMS5003;61530;51.158;0.880;2023-12-29T04:41:27;7;4;1
73305;PMS5003;61530;51.158;0.880;2023-12-29T04:42:30;9;4;2
73305;PMS5003;61530;51.158;0.880;2023-12-29T04:43:33;9;3;1
73305;PMS5003;61530;51.158;0.880;2023-12-29T04:44:36;8;4;1
73305;PMS5003;61530;51.158;0.880;2023-12-29T04:45:39;2;2;1
73305;PMS5003;61530;51.158;0.880;2023-12-29T04:46:42;7;4;1
73305;PMS5003;61530;51.158;0.880;2023-12-29T04:47:45;6;3;1
73305;PMS5003;61530;51.158;0.880;2023-12-29T04:48:48;6;5;2
73305;PMS5003;61530;51.158;0.880;2023-12-29T04:49:51;9;5;1
73305;PMS5003;61530;51.158;0.880;2023-12-29T04:50:54;4;4;1
73305;PMS5003;61530;51.158;0.880;2023-12-29T04:51:57;20;3;1
73305;PMS5003;61530;51.158;0.880;2023-12-29T04:53:00;6;2;1
73305;PMS5003;61530;51.158;0.880;2023-12-29T04:54:03;8;7;2
73305;PMS5003;61530;51.158;0.880;2023-12-29T04:55:07;6;2;1
73305;PMS5003;61530;51.158;0.880;2023-12-29T04:56:09;7;4;1
73305;PMS5003;61530;51.158;0.880;2023-12-29T04:57:12;3;3;1
73305;PMS5003;61530;51.158;0.880;2023-12-29T04:58:15;4;2;0
73305;PMS5003;61530;51.158;0.880;2023-12-29T04:59:18;5;2;0
73305;PMS5003;61530;51.158;0.880;2023-12-29T05:00:21;8;5;2
73305;PMS5003;61530;51.158;0.880;2023-12-29T05:01:24;6;5;1
73305;PMS5003;61530;51.158;0.880;2023-12-29T05:02:27;4;4;0
73305;PMS5003;61530;51.158;0.880;2023-12-29T05:03:30;10;6;2
73305;PMS5003;61530;51.158;0.880;2023-12-29T05:04:33;9;4;1
73305;PMS5003;61530;51.158;0.880;2023-12-29T05:05:36;8;5;1
73305;PMS5003;61530;51.158;0.880;2023-12-29T05:06:39;5;2;0
73305;PMS5003;61530;51.158;0.880;2023-12-29T05:07:42;4;3;2
73305;PMS5003;61530;51.158;0.880;2023-12-29T05:08:45;8;4;1
73305;PMS5003;61530;51.158;0.880;2023-12-29T05:09:48;12;3;1
73305;PMS5003;61530;51.158;0.880;2023-12-29T05:10:51;6;5;1
73305;PMS5003;61530;51.158;0.880;2023-12-29T05:11:54;6;5;1
73305;PMS5003;61530;51.158;0.880;2023-12-29T05:12:54;12;4;1
73305;PMS5003;61530;51.158;0.880;2023-12-29T05:13:57;9;3;0
73305;PMS5003;61530;51.158;0.880;2023-12-29T05:15:02;6;4;2
73305;PMS5003;61530;51.158;0.880;2023-12-29T05:16:05;7;5;1
73305;PMS5003;61530;51.158;0.880;2023-12-29T05:17:08;3;1;0
73305;PMS5003;61530;51.158;0.880;2023-12-29T05:18:11;4;3;1
73305;PMS5003;61530;51.158;0.880;2023-12-29T05:19:14;10;4;1
73305;PMS5003;61530;51.158;0.880;2023-12-29T05:20:17;4;3;1
73305;PMS5003;61530;51.158;0.880;2023-12-29T05:21:20;7;3;1
73305;PMS5003;61530;51.158;0.880;2023-12-29T05:22:23;7;3;1
73305;PMS5003;61530;51.158;0.880;2023-12-29T05:23:26;7;5;0
73305;PMS5003;61530;51.158;0.880;2023-12-29T05:24:29;10;6;0
73305;PMS5003;61530;51.158;0.880;2023-12-29T05:25:32;11;7;2
73305;PMS5003;61530;51.158;0.880;2023-12-29T05:26:35;5;4;1
73305;PMS5003;61530;51.158;0.880;2023-12-29T05:27:38;15;13;10
73305;PMS5003;61530;51.158;0.880;2023-12-29T05:28:41;4;2;0
73305;PMS5003;61530;51.158;0.880;2023-12-29T05:29:44;4;3;0
73305;PMS5003;61530;51.158;0.880;2023-12-29T05:30:47;4;4;1
73305;PMS5003;61530;51.158;0.880;2023-12-29T05:31:50;4;2;1
73305;PMS5003;61530;51.158;0.880;2023-12-29T05:32:53;7;3;1
73305;PMS5003;61530;51.158;0.880;2023-12-29T05:33:56;5;4;0
73305;PMS5003;61530;51.158;0.880;2023-12-29T05:34:59;8;4;1
73305;PMS5003;61530;51.158;0.880;2023-12-29T05:36:05;3;3;0
73305;PMS5003;61530;51.158;0.880;2023-12-29T05:37:05;8;5;2
73305;PMS5003;61530;51.158;0.880;2023-12-29T05:38:08;3;2;1
73305;PMS5003;61530;51.158;0.880;2023-12-29T05:39:11;3;2;1
73305;PMS5003;61530;51.158;0.880;2023-12-29T05:40:14;10;8;1
73305;PMS5003;61530;51.158;0.880;2023-12-29T05:41:17;7;4;0
73305;PMS5003;61530;51.158;0.880;2023-12-29T05:42:20;8;7;1
73305;PMS5003;61530;51.158;0.880;2023-12-29T05:43:23;9;3;0
73305;PMS5003;61530;51.158;0.880;2023-12-29T05:44:26;4;4;1
73305;PMS5003;61530;51.158;0.880;2023-12-29T05:45:29;3;3;1
73305;PMS5003;61530;51.158;0.880;2023-12-29T05:46:32;4;4;2
73305;PMS5003;61530;51.158;0.880;2023-12-29T05:47:35;4;2;0
73305;PMS5003;61530;51.158;0.880;2023-12-29T05:48:38;5;4;1
73305;PMS5003;61530;51.158;0.880;2023-12-29T05:49:41;8;4;0
73305;PMS5003;61530;51.158;0.880;2023-12-29T05:50:44;3;2;0
73305;PMS5003;61530;51.158;0.880;2023-12-29T05:51:47;7;2;1
73305;PMS5003;61530;51.158;0.880;2023-12-29T05:52:50;3;2;0
73305;PMS5003;61530;51.158;0.880;2023-12-29T05:53:53;5;3;1
73305;PMS5003;61530;51.158;0.880;2023-12-29T05:54:56;5;3;0
73305;PMS5003;61530;51.158;0.880;2023-12-29T05:55:59;5;4;1
73305;PMS5003;61530;51.158;0.880;2023-12-29T05:57:02;7;4;1
73305;PMS5003;61530;51.158;0.880;2023-12-29T05:58:05;6;3;1
73305;PMS5003;61530;51.158;0.880;2023-12-29T05:59:08;4;4;0
73305;PMS5003;61530;51.158;0.880;2023-12-29T06:00:11;6;2;1
73305;PMS5003;61530;51.158;0.880;2023-12-29T06:01:14;10;4;0
73305;PMS5003;61530;51.158;0.880;2023-12-29T06:02:17;2;1;1
73305;PMS5003;61530;51.158;0.880;2023-12-29T06:03:20;3;2;1
73305;PMS5003;61530;51.158;0.880;2023-12-29T06:04:23;6;3;1
73305;PMS5003;61530;51.158;0.880;2023-12-29T06:05:26;5;5;2
73305;PMS5003;61530;51.158;0.880;2023-12-29T06:06:29;6;2;1
73305;PMS5003;61530;51.158;0.880;2023-12-29T06:07:32;2;2;0
73305;PMS5003;61530;51.158;0.880;2023-12-29T06:08:35;5;3;0
73305;PMS5003;61530;51.158;0.880;2023-12-29T06:09:38;6;5;1
73305;PMS5003;61530;51.158;0.880;2023-12-29T06:10:41;3;2;0
73305;PMS5003;61530;51.158;0.880;2023-12-29T06:11:44;1;1;0
73305;PMS5003;61530;51.158;0.880;2023-12-29T06:12:47;5;3;0
73305;PMS5003;61530;51.158;0.880;2023-12-29T06:13:50;4;3;1
73305;PMS5003;61530;51.158;0.880;2023-12-29T06:14:53;4;1;1
73305;PMS5003;61530;51.158;0.880;2023-12-29T06:15:56;5;4;2
73305;PMS5003;61530;51.158;0.880;2023-12-29T06:16:59;7;4;2
73305;PMS5003;61530;51.158;0.880;2023-12-29T06:18:02;5;4;2
73305;PMS5003;61530;51.158;0.880;2023-12-29T06:19:05;2;1;0
73305;PMS5003;61530;51.158;0.880;2023-12-29T06:20:08;2;2;0
73305;PMS5003;61530;51.158;0.880;2023-12-29T06:21:11;10;4;2
73305;PMS5003;61530;51.158;0.880;2023-12-29T06:22:14;6;4;3
73305;PMS5003;61530;51.158;0.880;2023-12-29T06:23:19;5;2;1
73305;PMS5003;61530;51.158;0.880;2023-12-29T06:24:22;5;4;3
73305;PMS5003;61530;51.158;0.880;2023-12-29T06:25:25;9;4;2
73305;PMS5003;61530;51.158;0.880;2023-12-29T06:26:28;9;7;4
73305;PMS5003;61530;51.158;0.880;2023-12-29T06:27:31;3;3;2
73305;PMS5003;61530;51.158;0.880;2023-12-29T06:28:34;5;3;2
73305;PMS5003;61530;51.158;0.880;2023-12-29T06:29:37;6;5;3
73305;PMS5003;61530;51.158;0.880;2023-12-29T06:30:40;5;5;3
73305;PMS5003;61530;51.158;0.880;2023-12-29T06:31:43;4;4;2
73305;PMS5003;61530;51.158;0.880;2023-12-29T06:32:46;6;5;2
73305;PMS5003;61530;51.158;0.880;2023-12-29T06:33:49;9;6;4
73305;PMS5003;61530;51.158;0.880;2023-12-29T06:34:53;8;5;3
73305;PMS5003;61530;51.158;0.880;2023-12-29T06:35:56;9;5;3
73305;PMS5003;61530;51.158;0.880;2023-12-29T06:36:59;6;5;3
73305;PMS5003;61530;51.158;0.880;2023-12-29T06:38:02;8;6;3
73305;PMS5003;61530;51.158;0.880;2023-12-29T06:39:05;7;4;4
73305;PMS5003;61530;51.158;0.880;2023-12-29T06:40:08;8;6;2
73305;PMS5003;61530;51.158;0.880;2023-12-29T06:41:11;4;4;2
73305;PMS5003;61530;51.158;0.880;2023-12-29T06:42:14;7;4;3
73305;PMS5003;61530;51.158;0.880;2023-12-29T06:43:17;5;4;2
73305;PMS5003;61530;51.158;0.880;2023-12-29T06:44:20;3;3;2
73305;PMS5003;61530;51.158;0.880;2023-12-29T06:45:23;6;2;2
73305;PMS5003;61530;51.158;0.880;2023-12-29T06:46:26;11;4;0
73305;PMS5003;61530;51.158;0.880;2023-12-29T06:47:29;5;3;2
73305;PMS5003;61530;51.158;0.880;2023-12-29T06:48:32;14;3;3
73305;PMS5003;61530;51.158;0.880;2023-12-29T06:49:35;3;3;2
73305;PMS5003;61530;51.158;0.880;2023-12-29T06:50:39;8;3;3
73305;PMS5003;61530;51.158;0.880;2023-12-29T06:51:42;5;3;2
73305;PMS5003;61530;51.158;0.880;2023-12-29T06:52:45;5;4;3
73305;PMS5003;61530;51.158;0.880;2023-12-29T06:53:48;13;5;2
73305;PMS5003;61530;51.158;0.880;2023-12-29T06:54:51;4;4;3
73305;PMS5003;61530;51.158;0.880;2023-12-29T06:55:54;9;3;2
73305;PMS5003;61530;51.158;0.880;2023-12-29T06:56:57;3;3;2
73305;PMS5003;61530;51.158;0.880;2023-12-29T06:58:00;5;5;2
73305;PMS5003;61530;51.158;0.880;2023-12-29T06:59:06;3;2;1
73305;PMS5003;61530;51.158;0.880;2023-12-29T07:00:08;6;3;2
73305;PMS5003;61530;51.158;0.880;2023-12-29T07:01:11;7;7;4
73305;PMS5003;61530;51.158;0.880;2023-12-29T07:02:14;3;2;2